Thursday, November 27, 2014
17:05 UTC
  |  Log In   |  Register Free
Airport Search:

New Richmond Regional Airport
(KRNH)

New Richmond Regional Airport Diagram
No Airport Diagram Available

FAA data valid effective November 13, 2014 - January 08, 2015 (unless otherwise noted).

 
 
 
 
 
 
 
 
 
 
 
 
 
 

Current Aviation Weather for New Richmond Regional Airport (KRNH)

The most recent METAR observation for KRNH was updated at: 1620
METAR Summary (Translated METAR)
KRNH
271555Z AUTO 33004KT 10SM CLR M17/M21 A3049 RMK AO2 T11671209
KOEO
271555Z AUTO 29003KT 10SM CLR M17/M21 A3054 RMK AO2 T11671210
(11.6 nm NW from KRNH)
K21D
271551Z AUTO 33005KT 10SM CLR M16/M20 A3052 RMK AO2
(16.2 nm SW from KRNH)
TAF Summary (Translated TAF)
KRNH
271359Z 2714/2812 32005KT 6SM BR SCT007 TEMPO 2714/2716 1 1/2SM -SN BR BKN007 FM272200 VRB03KT P6SM SCT150 FM280400 16005KT P6SM BKN080 OVC120 FM280900 14012KT 4SM -SN SCT015 OVC035 TEMPO 2809/2812 1 1/2SM -SN BKN020
  Airport Weather Conditions for KRNH

 Current Weather at RNH
1° F
Fair
Northwest winds at 5.8 mph
RNH NOAA Radar

Pressure: 30.49 in
Humidity: 73%
Wind: Northwest at 5.8 MPH (5 KT)
Dew Point: -5.4°F
Visibility: 10.00 mi


Airport Weather Forecast for KRNH

Translated METAR and TAF for KRNH
Translated METAR for KRNH (1700 UTC 27 November 2014)
found at http://aviationweather.gov/adds/metars/
 
METAR text: KRNH 271635Z AUTO 31004KT 10SM CLR M16/M21 A3049 RMK AO2 T11571208
Conditions at: KRNH (NEW RICHMOND MUN, WI, US) observed 1635 UTC 27 November 2014
Temperature: -15.7°C (4°F)
Dewpoint: -20.8°C (-5°F) [RH = 65%]
Pressure (altimeter): 30.49 inches Hg (1032.6 mb)
Winds: from the NW (310 degrees) at 5 MPH (4 knots; 2.1 m/s)
Visibility: 10 or more miles (16+ km)
Ceiling: at least 12,000 feet AGL
Clouds: sky clear below 12,000 feet AGL
Weather: automated observation with no human augmentation;
there may or may not be significant weather present at this time
Translated TAF for KRNH
Forecast for: KRNH (NEW RICHMOND MUN, WI, US)
TAF Text: KRNH 271359Z 2714/2812 32005KT 6SM BR SCT007
Forecast period: 1400 to 2200 UTC 27 November 2014
Forecast type: FROM: standard forecast or significant change
Winds: from the NW (320 degrees) at 6 MPH (5 knots; 2.6 m/s)
Visibility: 6 miles (10 km)
Clouds: scattered clouds at 700 feet AGL
Weather: BR  (mist)
TAF Text: TEMPO 2714/2716 1 1/2SM -SN BR BKN007
Forecast period: 1400 to 1600 UTC 27 November 2014
Forecast type: TEMPORARY: The following changes expected for less than half the time period
Visibility: 1.50 miles (2.41 km)
Ceiling: 700 feet AGL
Clouds: broken clouds at 700 feet AGL
Weather: -SN BR  (light snow, mist)
TAF Text: FM272200 VRB03KT P6SM SCT150
Forecast period: 2200 UTC 27 November 2014 to 0400 UTC 28 November 2014
Forecast type: FROM: standard forecast or significant change
Winds: variable direction winds at 3 MPH (3 knots; 1.6 m/s)
Visibility: 6 or more miles (10+ km)
Clouds: scattered clouds at 15000 feet AGL
Weather: no significant weather forecast for this period
TAF Text: FM280400 16005KT P6SM BKN080 OVC120
Forecast period: 0400 to 0900 UTC 28 November 2014
Forecast type: FROM: standard forecast or significant change
Winds: from the SSE (160 degrees) at 6 MPH (5 knots; 2.6 m/s)
Visibility: 6 or more miles (10+ km)
Ceiling: 8000 feet AGL
Clouds: broken clouds at 8000 feet AGL
overcast cloud deck at 12000 feet AGL
Weather: no significant weather forecast for this period
TAF Text: FM280900 14012KT 4SM -SN SCT015 OVC035
Forecast period: 0900 to 1200 UTC 28 November 2014
Forecast type: FROM: standard forecast or significant change
Winds: from the SE (140 degrees) at 14 MPH (12 knots; 6.2 m/s)
Visibility: 4 miles (6 km)
Ceiling: 3500 feet AGL
Clouds: scattered clouds at 1500 feet AGL
overcast cloud deck at 3500 feet AGL
Weather: -SN  (light snow)
TAF Text: TEMPO 2809/2812 1 1/2SM -SN BKN020
Forecast period: 0900 to 1200 UTC 28 November 2014
Forecast type: TEMPORARY: The following changes expected for less than half the time period
Visibility: 1.50 miles (2.41 km)
Ceiling: 2000 feet AGL
Clouds: broken clouds at 2000 feet AGL
Weather: -SN  (light snow)

Find All Airport Services Find A Hotel Find A Rental Car Find A Golf Course Find A Restaurant $100 Hamburger



FBO's on the Field
FBO Company Facility Photos Services Transportation Aviation Fuel Prices: Prices include tax
Catering Weather Repair Courtesy Rental Type 100LL JetA JetA+ MOGAS 8087
 
Griggs Aviation

This FBO has not yet been rated
FS:Independent
Last Updated: Oct-21
Login to update fuel prices
SS:
Contact Griggs AviationMore FBO Information
 
Add another FBO Facility Photos Catering Weather Repair Courtesy Rental Type 100LL JetA JetA+ MOGAS 8087
Services Transportation Aviation Fuel Prices: Prices include tax


model-print
model-print
model-print
model-print